Time;durP1;ratioP1;P1;durP2;ratioP2;P2;SDS_P1;SDS_P2;PMS_P1;PMS_P2;Temp;Humidity;BMP_temperature;BMP_pressure;BME280_temperature;BME280_humidity;BME280_pressure;Samples;Min_cycle;Max_cycle;Signal;HPM_P1;HPM_P2
2023/02/24 00:02:28;;;;;;;69.20;45.40;;;;;;;8.51;73.75;99601.27;124456;1331;115046;-68
2023/02/24 00:11:03;;;;;;;73.90;45.80;;;;;;;8.57;73.78;99587.10;125593;1303;639095;-66
2023/02/24 00:15:05;;;;;;;76.50;46.70;;;;;;;8.55;73.85;99584.33;128129;1284;127745;-65
2023/02/24 00:23:10;;;;;;;77.20;46.20;;;;;;;8.57;73.77;99570.55;122267;1298;5436282;-66
2023/02/24 00:35:40;;;;;;;78.90;47.40;;;;;;;8.57;74.12;99555.79;127188;1289;129212;-66
2023/02/24 00:43:45;;;;;;;;;;;;;;;;;;;;;
2023/02/24 00:51:47;;;;;;;;;;;;;;;;;;;;;
2023/02/24 00:55:52;;;;;;;81.10;48.70;;;;;;;8.47;75.08;99534.52;128173;1278;116477;-68
2023/02/24 00:59:59;;;;;;;78.40;51.70;;;;;;;8.46;75.26;99531.23;126459;1286;5451062;-69
2023/02/24 01:03:58;;;;;;;;;;;;;;;;;;;;;
2023/02/24 01:16:22;;;;;;;;;;;;;;;;;;;;;
2023/02/24 01:20:40;;;;;;;80.60;50.70;;;;;;;8.35;75.41;99511.27;128254;1278;115322;-68
2023/02/24 01:24:06;;;;;;;73.50;46.60;;;;;;;8.34;76.12;99509.61;123853;1289;5456864;-68
2023/02/24 01:27:21;;;;;;;80.80;48.10;;;;;;;8.31;76.16;99497.45;128632;1254;114897;-68
2023/02/24 01:30:24;;;;;;;79.00;49.40;;;;;;;8.31;75.69;99498.02;130318;1269;114817;-74
2023/02/24 01:33:26;;;;;;;82.10;49.00;;;;;;;8.30;75.88;99497.16;130188;1276;114688;-68
2023/02/24 01:36:30;;;;;;;78.80;49.50;;;;;;;8.29;76.22;99497.77;130123;1269;114801;-77
2023/02/24 01:39:32;;;;;;;79.50;49.50;;;;;;;8.28;76.27;99491.95;130067;1276;115427;-67
2023/02/24 01:42:34;;;;;;;78.10;48.60;;;;;;;8.27;76.09;99493.25;129918;1272;114769;-70
2023/02/24 01:45:38;;;;;;;81.40;47.90;;;;;;;8.26;76.04;99490.30;130207;1260;114741;-67
2023/02/24 01:48:41;;;;;;;81.30;47.60;;;;;;;8.24;76.22;99484.14;129862;1266;114777;-77
2023/02/24 01:51:48;;;;;;;83.40;49.70;;;;;;;8.23;76.45;99481.73;130230;1270;114737;-64
2023/02/24 01:54:57;;;;;;;74.50;46.60;;;;;;;8.22;76.50;99480.16;129865;1266;114926;-79
2023/02/24 01:58:07;;;;;;;74.80;45.50;;;;;;;8.20;76.43;99473.67;130068;1279;128953;-77
2023/02/24 02:01:10;;;;;;;78.80;46.50;;;;;;;8.20;76.52;99475.09;130041;1257;115201;-68
2023/02/24 02:04:23;;;;;;;77.70;46.10;;;;;;;8.19;76.52;99470.16;129895;1267;114903;-77
2023/02/24 02:07:27;;;;;;;69.20;44.30;;;;;;;8.18;76.65;99461.52;130083;1275;114756;-68
2023/02/24 02:10:30;;;;;;;72.70;44.50;;;;;;;8.18;76.61;99463.32;129809;1260;114932;-80
2023/02/24 02:13:37;;;;;;;75.30;44.40;;;;;;;8.16;76.82;99457.16;130067;1269;129012;-63
2023/02/24 02:17:01;;;;;;;77.30;45.60;;;;;;;8.16;76.75;99455.23;129759;1278;115275;-63
2023/02/24 02:20:19;;;;;;;73.00;43.00;;;;;;;8.14;77.12;99452.84;130081;1260;114784;-73
2023/02/24 02:23:36;;;;;;;72.30;45.70;;;;;;;8.13;76.81;99448.30;130008;1260;114730;-75
2023/02/24 02:27:02;;;;;;;76.60;44.20;;;;;;;8.11;77.36;99444.67;129837;1279;114855;-75
2023/02/24 02:30:30;;;;;;;;;;;;;;;8.10;77.12;99448.07;129917;1270;129292;-76
2023/02/24 02:34:07;;;;;;;70.10;44.70;;;;;;;8.07;77.16;99438.95;129952;1263;115167;-74
2023/02/24 02:37:14;;;;;;;72.30;44.90;;;;;;;8.06;77.26;99437.09;129993;1260;115250;-72
2023/02/24 02:40:26;;;;;;;75.70;46.50;;;;;;;8.04;77.70;99435.58;129592;1267;114831;-77
2023/02/24 02:43:41;;;;;;;82.80;48.20;;;;;;;8.02;77.57;99433.71;129850;1279;116488;-67
2023/02/24 02:47:08;;;;;;;77.80;46.70;;;;;;;8.01;77.42;99433.03;129881;1260;128797;-78
2023/02/24 02:50:21;;;;;;;76.10;46.80;;;;;;;8.00;77.89;99426.16;129875;1262;115282;-70
2023/02/24 02:53:28;;;;;;;73.10;45.20;;;;;;;7.99;77.81;99424.27;130168;1264;115106;-74
2023/02/24 02:56:37;;;;;;;79.20;45.40;;;;;;;7.98;77.90;99419.52;129714;1257;114856;-66
2023/02/24 02:59:50;;;;;;;78.40;47.30;;;;;;;7.96;77.79;99416.45;129927;1273;114750;-77
2023/02/24 03:02:56;;;;;;;79.60;47.20;;;;;;;7.96;78.28;99413.08;129794;1259;127718;-70
2023/02/24 03:06:23;;;;;;;78.30;46.70;;;;;;;7.96;78.08;99411.67;129864;1263;115215;-67
2023/02/24 03:09:30;;;;;;;84.40;50.60;;;;;;;7.95;78.07;99407.26;129863;1273;114905;-76
2023/02/24 03:12:33;;;;;;;79.20;46.20;;;;;;;7.95;78.52;99406.90;129769;1263;114750;-66
2023/02/24 03:15:40;;;;;;;86.30;50.00;;;;;;;7.94;78.50;99405.35;129853;1261;114773;-77
2023/02/24 03:18:52;;;;;;;85.50;50.00;;;;;;;7.93;78.63;99405.05;129572;1277;126864;-76
2023/02/24 03:22:04;;;;;;;82.80;49.00;;;;;;;7.91;78.62;99399.27;129679;1271;114777;-75
2023/02/24 03:25:07;;;;;;;86.00;49.40;;;;;;;7.90;78.63;99400.04;129984;1260;114740;-72
2023/02/24 03:28:15;;;;;;;78.70;48.80;;;;;;;7.89;78.47;99392.97;129874;1279;115099;-67
2023/02/24 03:31:28;;;;;;;87.00;51.50;;;;;;;7.89;78.69;99391.20;129922;1260;114790;-73
2023/02/24 03:34:33;;;;;;;87.20;50.20;;;;;;;7.88;79.05;99387.69;129793;1264;127181;-66
2023/02/24 03:37:35;;;;;;;86.30;49.70;;;;;;;7.88;78.78;99385.90;129769;1264;115231;-71
2023/02/24 03:40:38;;;;;;;93.20;51.00;;;;;;;7.87;79.11;99379.03;130021;1270;114757;-65
2023/02/24 03:43:43;;;;;;;83.50;48.40;;;;;;;7.86;79.17;99378.52;130015;1279;114735;-76
2023/02/24 03:46:46;;;;;;;82.60;48.20;;;;;;;7.86;79.42;99378.56;129862;1273;114898;-77
2023/02/24 03:49:49;;;;;;;88.40;49.70;;;;;;;7.86;79.49;99374.86;129809;1264;114775;-67
2023/02/24 03:53:32;;;;;;;79.70;49.20;;;;;;;7.85;79.16;99370.98;129936;1279;114824;-69
2023/02/24 03:56:49;;;;;;;88.80;50.20;;;;;;;7.85;79.20;99367.59;130025;1261;115130;-77
2023/02/24 04:00:32;;;;;;;85.80;48.50;;;;;;;7.85;79.68;99365.29;129821;1274;114922;-68
2023/02/24 04:03:49;;;;;;;83.60;48.00;;;;;;;7.84;79.44;99360.35;129980;1279;114712;-70
2023/02/24 04:06:56;;;;;;;92.60;49.80;;;;;;;7.84;79.51;99356.83;130244;1269;128822;-73
2023/02/24 04:10:23;;;;;;;83.10;47.50;;;;;;;7.84;79.79;99353.98;129803;1264;115253;-75
2023/02/24 04:13:42;;;;;;;78.20;46.10;;;;;;;7.85;79.60;99347.01;129964;1261;114811;-69
2023/02/24 04:16:55;;;;;;;88.10;48.70;;;;;;;7.85;79.53;99346.60;130055;1259;114707;-77
2023/02/24 04:20:15;;;;;;;85.90;47.40;;;;;;;7.86;79.76;99339.42;129918;1272;114721;-71
2023/02/24 04:23:21;;;;;;;85.50;47.30;;;;;;;7.86;79.66;99337.11;129806;1268;127967;-76
2023/02/24 04:26:24;;;;;;;83.50;48.00;;;;;;;7.86;79.88;99331.26;129941;1260;115279;-63
2023/02/24 04:29:28;;;;;;;79.90;46.80;;;;;;;7.86;79.75;99328.77;129765;1280;114766;-74
2023/02/24 04:32:30;;;;;;;75.60;44.10;;;;;;;7.86;80.18;99326.81;129658;1266;115042;-64
2023/02/24 04:35:32;;;;;;;80.10;44.60;;;;;;;7.87;80.05;99324.28;129754;1281;115351;-69
2023/02/24 04:38:35;;;;;;;87.60;46.70;;;;;;;7.87;79.84;99323.02;129790;1280;114762;-76
2023/02/24 04:41:38;;;;;;;80.80;44.30;;;;;;;7.88;80.03;99318.02;129876;1280;114737;-76
2023/02/24 04:44:41;;;;;;;81.90;46.00;;;;;;;7.88;79.99;99312.33;129880;1280;114846;-66
2023/02/24 04:47:48;;;;;;;79.30;44.60;;;;;;;7.89;80.03;99314.44;129863;1280;114686;-73
2023/02/24 04:50:53;;;;;;;75.50;43.70;;;;;;;7.88;80.03;99310.52;129819;1268;114818;-67
2023/02/24 04:53:56;;;;;;;76.10;45.10;;;;;;;7.89;80.24;99306.05;129748;1258;115163;-69
2023/02/24 04:56:58;;;;;;;86.70;49.20;;;;;;;7.89;79.93;99304.25;129802;1260;115375;-75
2023/02/24 05:00:00;;;;;;;79.40;45.80;;;;;;;7.89;80.37;99303.89;129824;1264;114820;-72
2023/02/24 05:03:04;;;;;;;74.10;44.10;;;;;;;7.89;80.24;99297.35;129856;1271;115628;-72
2023/02/24 05:06:07;;;;;;;74.00;43.30;;;;;;;7.88;80.44;99298.48;129876;1257;114841;-65
2023/02/24 05:09:15;;;;;;;77.20;43.30;;;;;;;7.86;80.20;99297.12;129685;1258;114731;-76
2023/02/24 05:12:17;;;;;;;72.80;44.70;;;;;;;7.85;80.56;99295.05;129899;1261;114766;-65
2023/02/24 05:15:20;;;;;;;73.30;43.80;;;;;;;7.85;80.79;99291.34;129835;1261;114759;-65
2023/02/24 05:18:22;;;;;;;75.80;43.30;;;;;;;7.84;80.64;99289.42;129857;1276;114771;-68
2023/02/24 05:21:37;;;;;;;74.80;42.40;;;;;;;7.84;80.59;99287.14;129861;1270;115220;-72
2023/02/24 05:24:40;;;;;;;79.00;43.60;;;;;;;7.84;80.99;99285.54;129679;1266;114935;-69
2023/02/24 05:27:42;;;;;;;76.90;44.50;;;;;;;7.84;80.87;99284.63;129903;1258;115170;-68
2023/02/24 05:30:44;;;;;;;78.10;44.50;;;;;;;7.84;80.95;99284.27;129980;1279;115103;-65
2023/02/24 05:33:48;;;;;;;70.70;43.50;;;;;;;7.83;81.16;99281.30;129850;1279;115124;-72
2023/02/24 05:36:52;;;;;;;70.70;43.70;;;;;;;7.84;81.26;99281.47;129737;1264;127965;-74
2023/02/24 05:39:55;;;;;;;73.80;43.40;;;;;;;7.83;81.44;99280.45;129771;1279;115705;-68
2023/02/24 05:43:02;;;;;;;73.40;42.50;;;;;;;7.84;81.65;99277.88;129791;1266;114895;-64
2023/02/24 05:46:05;;;;;;;71.70;42.70;;;;;;;7.86;81.52;99276.02;130045;1279;114753;-72
2023/02/24 05:49:22;;;;;;;71.80;41.70;;;;;;;7.86;81.58;99275.83;130066;1279;114747;-71
2023/02/24 05:52:24;;;;;;;69.30;40.40;;;;;;;7.85;81.69;99277.80;129715;1258;127577;-64
2023/02/24 05:55:26;;;;;;;69.20;41.80;;;;;;;7.86;81.66;99277.43;129869;1260;114811;-73
2023/02/24 05:58:28;;;;;;;73.50;42.90;;;;;;;7.86;81.55;99278.10;129843;1271;115195;-64
2023/02/24 06:01:33;;;;;;;73.80;46.40;;;;;;;7.87;82.00;99280.40;129704;1260;114884;-65
2023/02/24 06:04:44;;;;;;;77.90;45.10;;;;;;;7.88;81.65;99281.22;129760;1260;115180;-71
2023/02/24 06:07:46;;;;;;;71.40;42.10;;;;;;;7.87;81.76;99281.09;129885;1257;114760;-74
2023/02/24 06:10:50;;;;;;;62.80;37.00;;;;;;;7.87;81.66;99284.11;129954;1260;114750;-64
2023/02/24 06:13:56;;;;;;;58.00;34.70;;;;;;;7.85;81.85;99287.40;129819;1267;114846;-71
2023/02/24 06:17:01;;;;;;;48.00;30.80;;;;;;;7.82;81.71;99284.05;129846;1277;114686;-72
2023/02/24 06:20:12;;;;;;;49.40;28.50;;;;;;;7.78;81.40;99282.86;129951;1264;114911;-70
2023/02/24 06:23:16;;;;;;;43.30;25.80;;;;;;;7.72;81.57;99282.95;129731;1265;114840;-72
2023/02/24 06:26:20;;;;;;;49.10;27.40;;;;;;;7.70;81.61;99283.27;129617;1258;128165;-64
2023/02/24 06:29:28;;;;;;;46.60;25.50;;;;;;;7.67;81.55;99283.95;129818;1280;115192;-67
2023/02/24 06:32:30;;;;;;;43.30;24.80;;;;;;;7.66;81.59;99280.82;129326;1267;114930;-69
2023/02/24 06:35:33;;;;;;;45.70;26.10;;;;;;;7.65;81.60;99278.55;129870;1261;114795;-70
2023/02/24 06:38:36;;;;;;;49.10;27.70;;;;;;;7.66;81.41;99275.10;129816;1280;114785;-69
2023/02/24 06:41:38;;;;;;;50.40;28.80;;;;;;;7.67;81.92;99278.78;129722;1263;116277;-65
2023/02/24 06:44:40;;;;;;;47.40;27.20;;;;;;;7.69;81.56;99278.87;129690;1263;116076;-73
2023/02/24 06:47:42;;;;;;;49.30;27.80;;;;;;;7.71;81.62;99277.89;129810;1278;115317;-66
2023/02/24 06:50:45;;;;;;;53.60;29.10;;;;;;;7.71;81.96;99277.49;129933;1261;115231;-70
2023/02/24 06:53:49;;;;;;;52.20;29.80;;;;;;;7.74;81.79;99279.11;129959;1257;114774;-67
2023/02/24 06:56:51;;;;;;;50.50;28.30;;;;;;;7.76;81.82;99280.46;130032;1260;115175;-71
2023/02/24 06:59:54;;;;;;;49.50;27.90;;;;;;;7.77;81.75;99283.07;130068;1279;114852;-70
2023/02/24 07:03:07;;;;;;;58.60;27.70;;;;;;;7.79;81.70;99287.23;130162;1279;114769;-68
2023/02/24 07:06:19;;;;;;;51.90;27.10;;;;;;;7.78;81.75;99291.03;129753;1257;116117;-66
2023/02/24 07:09:23;;;;;;;51.50;27.60;;;;;;;7.77;81.78;99291.77;129760;1264;114818;-68
2023/02/24 07:12:25;;;;;;;52.30;28.10;;;;;;;7.76;81.54;99293.43;130048;1257;114772;-73
2023/02/24 07:15:30;;;;;;;45.80;25.50;;;;;;;7.75;81.58;99291.34;129969;1279;114773;-71
2023/02/24 07:18:39;;;;;;;48.10;24.20;;;;;;;7.74;81.75;99285.50;129785;1257;127954;-71
2023/02/24 07:21:48;;;;;;;45.40;25.40;;;;;;;7.75;81.65;99285.65;130007;1257;115249;-65
2023/02/24 07:24:59;;;;;;;43.40;24.50;;;;;;;7.74;81.57;99287.48;129882;1264;114740;-72
2023/02/24 07:28:01;;;;;;;42.10;23.90;;;;;;;7.73;81.48;99286.14;130011;1261;114822;-66
2023/02/24 07:31:07;;;;;;;44.10;23.20;;;;;;;7.74;81.62;99283.23;129961;1279;114734;-71
2023/02/24 07:34:13;;;;;;;40.10;22.30;;;;;;;7.74;81.35;99280.91;130133;1278;129013;-67
2023/02/24 07:37:15;;;;;;;43.80;22.80;;;;;;;7.74;81.40;99279.15;130124;1257;115225;-67
2023/02/24 07:40:20;;;;;;;36.40;19.70;;;;;;;7.73;81.14;99279.91;130067;1260;115647;-64
2023/02/24 07:43:23;;;;;;;;;;;;;;;7.72;81.21;99278.15;130232;1262;114762;-73
2023/02/24 07:46:29;;;;;;;34.20;20.20;;;;;;;7.71;81.25;99263.46;130068;1279;114721;-70
2023/02/24 07:49:32;;;;;;;39.60;20.90;;;;;;;7.70;81.20;99266.88;129809;1279;128145;-72
2023/02/24 07:52:35;;;;;;;41.40;20.00;;;;;;;7.70;81.01;99266.02;129916;1256;114728;-73
2023/02/24 07:55:37;;;;;;;39.50;20.50;;;;;;;7.71;81.45;99268.80;129893;1279;114735;-72
2023/02/24 07:58:41;;;;;;;33.90;17.80;;;;;;;7.71;80.74;99267.21;129976;1279;114738;-65
2023/02/24 08:01:48;;;;;;;33.50;18.60;;;;;;;7.70;81.13;99266.70;129997;1275;114886;-68
2023/02/24 08:04:51;;;;;;;39.20;18.80;;;;;;;7.69;80.92;99265.89;129736;1260;127681;-66
2023/02/24 08:07:55;;;;;;;31.70;17.40;;;;;;;7.67;80.68;99261.76;129937;1257;114757;-69
2023/02/24 08:11:02;;;;;;;35.90;18.40;;;;;;;7.66;80.77;99259.33;129871;1256;114768;-66
2023/02/24 08:14:12;;;;;;;36.20;17.70;;;;;;;7.65;80.79;99254.02;130048;1259;114794;-73
2023/02/24 08:17:19;;;;;;;32.80;17.30;;;;;;;7.66;80.75;99250.09;129743;1257;114909;-67
2023/02/24 08:20:23;;;;;;;36.40;17.70;;;;;;;7.70;81.02;99245.76;129962;1257;128896;-71
2023/02/24 08:23:26;;;;;;;39.20;17.20;;;;;;;7.76;81.18;99242.43;130226;1257;114776;-71
2023/02/24 08:26:30;;;;;;;37.40;17.80;;;;;;;7.81;80.76;99241.61;130139;1259;115167;-66
2023/02/24 08:30:22;;;;;;;32.50;16.30;;;;;;;7.87;80.78;99239.66;129817;1259;115459;-74
2023/02/24 08:32:58;;;;;;;38.00;18.00;;;;;;;7.93;80.58;99237.92;129740;1263;115429;-75
2023/02/24 08:36:00;;;;;;;36.50;17.60;;;;;;;7.99;81.03;99235.64;129773;1257;127828;-68
2023/02/24 08:39:02;;;;;;;35.90;18.80;;;;;;;8.04;80.35;99231.94;129905;1279;114825;-65
2023/02/24 08:42:08;;;;;;;35.20;19.00;;;;;;;8.08;80.26;99230.54;130011;1259;115211;-70
2023/02/24 08:45:13;;;;;;;38.80;18.60;;;;;;;8.10;80.17;99230.08;129765;1264;115415;-75
2023/02/24 08:48:35;;;;;;;35.40;17.90;;;;;;;8.10;80.04;99229.16;130063;1260;115236;-67
2023/02/24 08:51:42;;;;;;;45.10;22.30;;;;;;;8.09;79.93;99226.35;129894;1279;114777;-76
2023/02/24 08:54:47;;;;;;;36.20;19.90;;;;;;;8.13;79.84;99230.23;129764;1279;128143;-70
2023/02/24 08:57:50;;;;;;;39.90;21.10;;;;;;;8.15;79.93;99226.01;130232;1259;115202;-66
2023/02/24 09:00:58;;;;;;;34.60;19.30;;;;;;;8.15;79.85;99219.98;130359;1257;114743;-66
2023/02/24 09:04:11;;;;;;;38.50;19.50;;;;;;;8.16;79.98;99221.86;130501;1253;114781;-62
2023/02/24 09:07:20;;;;;;;35.40;20.10;;;;;;;8.19;80.17;99212.64;130061;1276;114686;-62
2023/02/24 09:10:22;;;;;;;34.30;18.00;;;;;;;8.25;80.07;99205.55;130042;1276;128836;-63
2023/02/24 09:13:31;;;;;;;36.50;19.40;;;;;;;8.32;79.89;99203.02;130046;1276;114826;-63
2023/02/24 09:16:34;;;;;;;35.80;18.60;;;;;;;8.40;79.85;99197.05;129850;1260;115506;-61
2023/02/24 09:23:02;;;;;;;34.10;17.60;;;;;;;8.55;79.52;99189.58;129978;1276;114837;-62
2023/02/24 09:26:09;;;;;;;37.40;18.40;;;;;;;8.65;79.26;99185.46;129939;1276;129564;-61
2023/02/24 09:32:34;;;;;;;29.60;17.20;;;;;;;8.85;79.36;99180.17;129961;1257;114722;-62
2023/02/24 09:35:40;;;;;;;34.10;16.80;;;;;;;8.93;79.22;99177.02;130108;1276;115196;-60
2023/02/24 09:45:10;;;;;;;26.50;13.80;;;;;;;9.09;78.55;99165.88;130007;1254;115230;-61
2023/02/24 09:48:20;;;;;;;28.90;13.00;;;;;;;9.16;78.37;99159.77;129927;1259;114760;-61
2023/02/24 09:51:27;;;;;;;23.30;12.30;;;;;;;9.21;78.33;99155.69;129582;1262;114880;-60
2023/02/24 09:54:32;;;;;;;19.90;11.00;;;;;;;9.26;78.11;99156.97;129652;1261;114804;-61
2023/02/24 09:58:21;;;;;;;18.10;10.00;;;;;;;9.29;77.76;99150.40;129923;1275;128825;-61
2023/02/24 10:01:32;;;;;;;18.20;10.60;;;;;;;9.23;77.27;99149.15;129841;1276;116607;-61
2023/02/24 10:04:52;;;;;;;20.50;10.60;;;;;;;9.18;77.27;99145.54;130072;1269;114728;-61
2023/02/24 10:07:56;;;;;;;19.50;10.40;;;;;;;9.18;77.30;99144.52;130200;1275;115064;-62
2023/02/24 10:11:08;;;;;;;18.90;10.20;;;;;;;9.16;77.02;99142.33;129682;1264;114936;-61
2023/02/24 10:14:18;;;;;;;16.70;9.40;;;;;;;9.04;76.43;99142.52;129794;1276;128549;-62
2023/02/24 10:17:23;;;;;;;17.90;8.80;;;;;;;8.89;76.02;99145.74;129913;1270;115173;-60
2023/02/24 10:20:30;;;;;;;;;;;;;;;8.72;75.71;99147.27;130147;1259;114837;-62
2023/02/24 10:24:13;;;;;;;13.70;7.50;;;;;;;8.57;75.72;99144.08;129759;1275;114906;-62
2023/02/24 10:27:23;;;;;;;13.40;7.80;;;;;;;8.41;75.60;99139.50;129232;1267;114916;-62
2023/02/24 10:30:40;;;;;;;14.70;7.30;;;;;;;8.27;75.67;99133.40;129046;1283;127955;-62
2023/02/24 10:33:45;;;;;;;11.80;7.20;;;;;;;8.18;75.51;99127.17;129168;1276;115487;-62
2023/02/24 10:36:49;;;;;;;16.40;8.60;;;;;;;8.16;76.21;99116.25;129270;1278;115325;-61
2023/02/24 10:39:59;;;;;;;14.00;7.60;;;;;;;8.19;76.16;99104.32;129353;1280;115323;-61
2023/02/24 10:43:09;;;;;;;14.80;6.60;;;;;;;8.28;76.66;99092.44;129217;1283;115000;-61
2023/02/24 10:46:41;;;;;;;12.90;6.50;;;;;;;8.41;76.57;99088.06;129162;1280;127095;-61
2023/02/24 10:49:57;;;;;;;14.70;6.10;;;;;;;8.57;76.54;99083.77;129026;1284;115298;-62
2023/02/24 10:56:25;;;;;;;12.50;6.30;;;;;;;8.89;76.35;99067.42;129068;1265;114895;-62
2023/02/24 10:59:47;;;;;;;10.40;5.90;;;;;;;9.08;76.40;99063.17;128933;1267;115718;-61
2023/02/24 11:03:24;;;;;;;11.00;6.20;;;;;;;9.25;76.22;99060.66;129044;1282;128345;-62
2023/02/24 11:06:29;;;;;;;9.30;4.70;;;;;;;9.38;75.26;99049.52;129413;1276;114831;-62
2023/02/24 11:09:34;;;;;;;9.90;4.70;;;;;;;9.41;74.56;99049.30;129276;1260;114819;-61
2023/02/24 11:19:31;;;;;;;9.90;4.90;;;;;;;9.27;74.24;99036.14;129117;1278;128422;-61
2023/02/24 11:22:46;;;;;;;11.10;6.60;;;;;;;9.24;74.65;99025.63;129477;1263;115307;-62
2023/02/24 11:25:52;;;;;;;11.50;7.80;;;;;;;9.25;74.78;99019.02;129357;1254;115197;-62
2023/02/24 11:29:21;;;;;;;10.60;6.10;;;;;;;9.25;74.95;99004.37;129931;1256;114832;-63
2023/02/24 11:32:55;;;;;;;9.20;5.00;;;;;;;9.29;74.80;99006.10;129826;1269;114814;-63
2023/02/24 11:36:08;;;;;;;8.70;5.30;;;;;;;9.27;74.71;98996.08;129791;1270;127626;-63
2023/02/24 11:39:15;;;;;;;11.50;7.10;;;;;;;9.21;74.39;98988.09;129946;1254;115609;-63
2023/02/24 11:42:32;;;;;;;12.90;5.80;;;;;;;9.22;74.57;98983.55;130061;1256;114731;-63
2023/02/24 11:45:54;;;;;;;12.40;5.60;;;;;;;9.26;74.30;98981.70;130152;1258;114909;-63
2023/02/24 11:48:57;;;;;;;9.20;6.10;;;;;;;9.34;74.35;98978.15;129954;1261;116260;-62
2023/02/24 11:52:03;;;;;;;11.30;6.60;;;;;;;9.35;73.96;98970.94;130057;1269;128611;-62
2023/02/24 11:55:15;;;;;;;8.90;6.00;;;;;;;9.34;73.47;98972.13;129984;1269;115196;-62
2023/02/24 11:58:32;;;;;;;11.40;6.00;;;;;;;9.30;73.13;98975.17;129631;1256;114851;-62
2023/02/24 12:02:05;;;;;;;9.40;6.50;;;;;;;9.21;72.66;98968.48;130047;1256;116559;-61
2023/02/24 12:05:15;;;;;;;11.70;6.80;;;;;;;9.13;72.75;98959.37;130011;1257;114811;-62
2023/02/24 12:08:23;;;;;;;11.60;7.00;;;;;;;9.16;72.94;98951.36;129710;1275;126971;-62
2023/02/24 12:11:49;;;;;;;13.20;6.90;;;;;;;9.16;72.61;98944.82;130062;1253;114727;-62
2023/02/24 12:15:00;;;;;;;14.50;8.70;;;;;;;9.22;73.00;98936.50;129955;1269;114723;-61
2023/02/24 12:18:11;;;;;;;14.00;8.50;;;;;;;9.26;72.81;98939.46;129720;1255;115014;-61
2023/02/24 12:21:38;;;;;;;11.80;7.50;;;;;;;9.32;72.88;98935.35;129763;1260;116407;-62
2023/02/24 12:24:46;;;;;;;14.50;7.90;;;;;;;9.39;73.00;98933.64;129820;1259;128650;-63
2023/02/24 12:28:09;;;;;;;14.60;8.80;;;;;;;9.47;72.90;98928.48;129742;1276;116576;-62
2023/02/24 12:31:40;;;;;;;14.70;9.90;;;;;;;9.53;72.49;98920.75;133416;1253;114695;-61
2023/02/24 12:35:05;;;;;;;12.00;9.40;;;;;;;9.59;72.41;98916.11;129441;1262;114959;-62
2023/02/24 12:38:22;;;;;;;13.50;10.20;;;;;;;9.64;72.30;98911.62;129176;1283;115381;-62
2023/02/24 12:41:27;;;;;;;15.00;9.20;;;;;;;9.76;72.75;98914.73;129112;1284;127796;-62
2023/02/24 12:44:44;;;;;;;;;;;;;;;9.86;72.60;98897.67;129175;1262;114915;-62
2023/02/24 12:48:24;;;;;;;15.90;11.20;;;;;;;9.96;72.67;98890.73;129008;1263;115021;-62
2023/02/24 12:51:38;;;;;;;15.90;10.20;;;;;;;10.14;73.00;98887.16;129198;1266;114984;-62
2023/02/24 12:55:02;;;;;;;13.50;9.70;;;;;;;10.29;72.64;98880.73;129070;1267;114857;-62
2023/02/24 12:58:21;;;;;;;13.90;10.10;;;;;;;10.41;72.36;98870.98;129260;1284;128768;-61
2023/02/24 13:01:48;;;;;;;14.20;10.00;;;;;;;10.61;72.28;98854.20;129143;1267;115246;-62
2023/02/24 13:05:24;;;;;;;14.20;9.90;;;;;;;10.75;71.81;98847.11;129202;1262;114853;-61
2023/02/24 13:09:13;;;;;;;14.20;8.50;;;;;;;10.79;71.24;98845.92;128758;1271;115003;-62
2023/02/24 13:12:37;;;;;;;9.10;6.40;;;;;;;10.86;71.39;98847.80;128908;1267;115478;-61
2023/02/24 13:15:52;;;;;;;8.10;6.40;;;;;;;10.88;70.54;98845.58;129084;1275;127791;-63
2023/02/24 13:19:20;;;;;;;10.10;5.60;;;;;;;10.79;69.29;98834.88;129118;1268;114895;-61
2023/02/24 13:22:28;;;;;;;8.20;5.90;;;;;;;10.67;69.15;98820.61;129119;1277;114908;-62
2023/02/24 13:25:37;;;;;;;9.50;5.60;;;;;;;10.65;69.58;98817.83;129024;1264;230453;-61
2023/02/24 13:28:40;;;;;;;8.70;6.40;;;;;;;10.66;69.03;98811.38;129027;1286;116542;-61
2023/02/24 13:31:50;;;;;;;8.10;4.80;;;;;;;10.59;68.97;98804.54;128981;1264;115140;-62
2023/02/24 13:34:53;;;;;;;10.00;5.00;;;;;;;10.59;68.96;98801.34;129125;1285;115209;-62
2023/02/24 13:38:07;;;;;;;11.30;5.00;;;;;;;10.65;69.73;98796.83;129282;1266;115274;-61
2023/02/24 13:41:42;;;;;;;6.80;4.80;;;;;;;10.71;68.89;98792.95;129278;1262;114921;-61
2023/02/24 13:44:54;;;;;;;10.30;5.40;;;;;;;10.74;69.17;98790.94;129086;1268;114880;-61
2023/02/24 13:48:25;;;;;;;19.80;11.70;;;;;;;10.77;69.05;98785.17;129611;1273;127698;-62
2023/02/24 13:51:46;;;;;;;11.40;7.50;;;;;;;10.73;68.61;98782.82;130023;1254;115303;-62
2023/02/24 13:55:04;;;;;;;6.50;4.80;;;;;;;10.73;68.69;98771.88;129955;1254;114753;-63
2023/02/24 13:58:51;;;;;;;8.90;5.90;;;;;;;10.72;68.41;98767.15;129796;1260;116400;-62
2023/02/24 14:02:02;;;;;;;9.90;4.50;;;;;;;10.74;68.57;98759.33;129416;1282;114840;-62
2023/02/24 14:05:12;;;;;;;9.00;3.70;;;;;;;10.74;68.45;98762.37;129223;1259;127850;-60
2023/02/24 14:08:33;;;;;;;6.50;3.20;;;;;;;10.71;67.72;98762.95;129240;1283;115365;-61
2023/02/24 14:11:36;;;;;;;6.60;3.40;;;;;;;10.63;67.25;98755.32;129249;1260;114899;-61
2023/02/24 14:14:41;;;;;;;5.60;3.40;;;;;;;10.54;67.35;98758.69;129417;1262;114906;-61
2023/02/24 14:17:58;;;;;;;8.80;5.10;;;;;;;10.46;67.51;98755.88;129395;1265;114881;-61
2023/02/24 14:21:01;;;;;;;9.90;6.80;;;;;;;10.43;67.36;98754.52;129370;1265;128019;-59
2023/02/24 14:24:10;;;;;;;10.20;7.00;;;;;;;10.35;67.20;98754.90;129332;1263;114922;-60
2023/02/24 14:27:25;;;;;;;10.50;6.90;;;;;;;10.22;67.27;98751.16;129259;1259;114892;-60
2023/02/24 14:30:38;;;;;;;14.80;9.10;;;;;;;10.13;67.70;98751.25;129043;1259;114923;-59
2023/02/24 14:33:42;;;;;;;15.10;9.60;;;;;;;10.02;67.39;98752.62;129122;1281;115667;-60
2023/02/24 14:36:45;;;;;;;16.40;10.10;;;;;;;9.90;67.60;98750.64;129134;1270;128045;-62
2023/02/24 14:39:56;;;;;;;10.80;7.20;;;;;;;9.82;67.56;98747.46;129769;1265;115231;-60
2023/02/24 14:42:59;;;;;;;11.70;7.30;;;;;;;9.68;67.30;98745.73;130125;1276;114722;-61
2023/02/24 14:46:05;;;;;;;13.40;7.70;;;;;;;9.59;67.68;98739.82;129817;1272;115377;-60
2023/02/24 14:49:17;;;;;;;13.70;7.00;;;;;;;9.53;67.80;98742.55;129950;1269;114746;-63
2023/02/24 14:52:23;;;;;;;10.00;6.40;;;;;;;9.45;67.68;98737.39;129685;1262;128712;-61
2023/02/24 14:55:36;;;;;;;8.70;5.70;;;;;;;9.39;67.81;98734.74;129907;1270;115528;-60
2023/02/24 14:58:43;;;;;;;10.30;5.40;;;;;;;9.33;67.61;98730.91;130162;1257;114732;-60
2023/02/24 15:01:48;;;;;;;10.30;5.30;;;;;;;9.27;67.46;98724.05;129928;1254;114773;-60
2023/02/24 15:04:53;;;;;;;11.20;4.80;;;;;;;9.18;66.95;98718.59;129951;1267;114760;-60
2023/02/24 15:07:57;;;;;;;13.40;6.70;;;;;;;9.07;67.20;98712.80;129999;1254;128690;-60
2023/02/24 15:10:59;;;;;;;12.30;7.00;;;;;;;8.95;67.29;98709.09;129869;1262;114915;-61
2023/02/24 15:14:05;;;;;;;10.80;6.80;;;;;;;8.90;67.45;98701.48;129713;1256;114847;-61
2023/02/24 15:17:10;;;;;;;;;;;;;;;8.84;67.28;98693.69;129948;1254;114705;-59
2023/02/24 15:20:42;;;;;;;14.40;8.20;;;;;;;8.76;67.35;98688.48;129948;1276;114740;-60
2023/02/24 15:23:46;;;;;;;19.60;8.70;;;;;;;8.66;67.07;98683.13;129131;1267;128424;-61
2023/02/24 15:27:22;;;;;;;10.60;6.10;;;;;;;8.57;67.17;98670.92;129004;1267;115481;-60
2023/02/24 15:30:37;;;;;;;;;;;;;;;8.47;67.37;98675.67;129044;1266;114831;-61
2023/02/24 15:33:45;;;;;;;19.90;9.20;;;;;;;8.39;67.43;98675.47;129172;1265;114922;-61
2023/02/24 15:36:50;;;;;;;18.00;8.80;;;;;;;8.33;67.39;98675.70;129184;1284;114925;-61
2023/02/24 15:40:14;;;;;;;17.60;8.30;;;;;;;8.26;67.41;98673.66;128865;1261;128003;-61
2023/02/24 15:43:37;;;;;;;13.60;6.60;;;;;;;8.17;67.03;98670.14;129221;1265;115189;-60
2023/02/24 15:46:39;;;;;;;19.30;10.70;;;;;;;8.06;67.30;98671.39;129142;1262;114916;-61